sensor_id;sensor_type;location;lat;lon;timestamp;temperature;humidity
12872;DHT22;6504;53.766;9.626;2024-02-14T00:01:03;5.40;99.90
12872;DHT22;6504;53.766;9.626;2024-02-14T00:03:35;5.40;99.90
12872;DHT22;6504;53.766;9.626;2024-02-14T00:06:05;5.40;99.90
12872;DHT22;6504;53.766;9.626;2024-02-14T00:08:33;5.40;99.90
12872;DHT22;6504;53.766;9.626;2024-02-14T00:11:02;5.40;99.90
12872;DHT22;6504;53.766;9.626;2024-02-14T00:13:30;5.40;99.90
12872;DHT22;6504;53.766;9.626;2024-02-14T00:16:02;5.30;99.90
12872;DHT22;6504;53.766;9.626;2024-02-14T00:18:30;5.30;99.90
12872;DHT22;6504;53.766;9.626;2024-02-14T00:20:59;5.30;99.90
12872;DHT22;6504;53.766;9.626;2024-02-14T00:23:27;5.30;99.90
12872;DHT22;6504;53.766;9.626;2024-02-14T00:25:55;5.30;99.90
12872;DHT22;6504;53.766;9.626;2024-02-14T00:28:23;5.30;99.90
12872;DHT22;6504;53.766;9.626;2024-02-14T00:30:54;5.20;99.90
12872;DHT22;6504;53.766;9.626;2024-02-14T00:33:23;5.20;99.90
12872;DHT22;6504;53.766;9.626;2024-02-14T00:35:51;5.20;99.90
12872;DHT22;6504;53.766;9.626;2024-02-14T00:38:19;5.20;99.90
12872;DHT22;6504;53.766;9.626;2024-02-14T00:40:47;5.20;99.90
12872;DHT22;6504;53.766;9.626;2024-02-14T00:43:16;5.20;99.90
12872;DHT22;6504;53.766;9.626;2024-02-14T00:45:44;5.20;99.90
12872;DHT22;6504;53.766;9.626;2024-02-14T00:48:12;5.20;99.90
12872;DHT22;6504;53.766;9.626;2024-02-14T00:50:42;5.20;99.90
12872;DHT22;6504;53.766;9.626;2024-02-14T00:53:10;5.20;99.90
12872;DHT22;6504;53.766;9.626;2024-02-14T00:55:38;5.20;99.90
12872;DHT22;6504;53.766;9.626;2024-02-14T00:58:06;5.20;99.90
12872;DHT22;6504;53.766;9.626;2024-02-14T01:00:34;5.20;99.90
12872;DHT22;6504;53.766;9.626;2024-02-14T01:03:03;5.20;99.90
12872;DHT22;6504;53.766;9.626;2024-02-14T01:05:31;5.20;99.90
12872;DHT22;6504;53.766;9.626;2024-02-14T01:08:01;5.20;99.90
12872;DHT22;6504;53.766;9.626;2024-02-14T01:10:29;5.20;99.90
12872;DHT22;6504;53.766;9.626;2024-02-14T01:12:57;5.20;99.90
12872;DHT22;6504;53.766;9.626;2024-02-14T01:15:25;5.20;99.90
12872;DHT22;6504;53.766;9.626;2024-02-14T01:17:53;5.20;99.90
12872;DHT22;6504;53.766;9.626;2024-02-14T01:20:21;5.20;99.90
12872;DHT22;6504;53.766;9.626;2024-02-14T01:22:50;5.20;99.90
12872;DHT22;6504;53.766;9.626;2024-02-14T01:25:19;5.20;99.90
12872;DHT22;6504;53.766;9.626;2024-02-14T01:27:47;5.30;99.90
12872;DHT22;6504;53.766;9.626;2024-02-14T01:30:16;5.20;99.90
12872;DHT22;6504;53.766;9.626;2024-02-14T01:32:44;5.20;99.90
12872;DHT22;6504;53.766;9.626;2024-02-14T01:35:13;5.20;99.90
12872;DHT22;6504;53.766;9.626;2024-02-14T01:37:41;5.20;99.90
12872;DHT22;6504;53.766;9.626;2024-02-14T01:40:11;5.20;99.90
12872;DHT22;6504;53.766;9.626;2024-02-14T01:42:41;5.20;99.90
12872;DHT22;6504;53.766;9.626;2024-02-14T01:45:09;5.20;99.90
12872;DHT22;6504;53.766;9.626;2024-02-14T01:47:37;5.20;99.90
12872;DHT22;6504;53.766;9.626;2024-02-14T01:50:08;5.20;99.90
12872;DHT22;6504;53.766;9.626;2024-02-14T01:52:38;5.20;99.90
12872;DHT22;6504;53.766;9.626;2024-02-14T01:55:08;5.20;99.90
12872;DHT22;6504;53.766;9.626;2024-02-14T01:57:36;5.20;99.90
12872;DHT22;6504;53.766;9.626;2024-02-14T02:00:08;5.20;99.90
12872;DHT22;6504;53.766;9.626;2024-02-14T02:02:42;5.20;99.90
12872;DHT22;6504;53.766;9.626;2024-02-14T02:05:10;5.20;99.90
12872;DHT22;6504;53.766;9.626;2024-02-14T02:07:38;5.20;99.90
12872;DHT22;6504;53.766;9.626;2024-02-14T02:10:10;5.20;99.90
12872;DHT22;6504;53.766;9.626;2024-02-14T02:12:38;5.20;99.90
12872;DHT22;6504;53.766;9.626;2024-02-14T02:15:08;5.20;99.90
12872;DHT22;6504;53.766;9.626;2024-02-14T02:17:40;5.20;99.90
12872;DHT22;6504;53.766;9.626;2024-02-14T02:20:11;5.20;99.90
12872;DHT22;6504;53.766;9.626;2024-02-14T02:22:46;5.20;99.90
12872;DHT22;6504;53.766;9.626;2024-02-14T02:25:15;5.20;99.90
12872;DHT22;6504;53.766;9.626;2024-02-14T02:27:44;5.20;99.90
12872;DHT22;6504;53.766;9.626;2024-02-14T02:30:12;5.20;99.90
12872;DHT22;6504;53.766;9.626;2024-02-14T02:32:42;5.20;99.90
12872;DHT22;6504;53.766;9.626;2024-02-14T02:35:11;5.20;99.90
12872;DHT22;6504;53.766;9.626;2024-02-14T02:37:39;5.20;99.90
12872;DHT22;6504;53.766;9.626;2024-02-14T02:40:10;5.20;99.90
12872;DHT22;6504;53.766;9.626;2024-02-14T02:42:39;5.20;99.90
12872;DHT22;6504;53.766;9.626;2024-02-14T02:45:08;5.20;99.90
12872;DHT22;6504;53.766;9.626;2024-02-14T02:47:36;5.20;99.90
12872;DHT22;6504;53.766;9.626;2024-02-14T02:50:05;5.20;99.90
12872;DHT22;6504;53.766;9.626;2024-02-14T02:52:34;5.20;99.90
12872;DHT22;6504;53.766;9.626;2024-02-14T02:55:03;5.20;99.90
12872;DHT22;6504;53.766;9.626;2024-02-14T02:57:33;5.30;99.90
12872;DHT22;6504;53.766;9.626;2024-02-14T03:00:06;5.20;99.90
12872;DHT22;6504;53.766;9.626;2024-02-14T03:02:35;5.20;99.90
12872;DHT22;6504;53.766;9.626;2024-02-14T03:05:05;5.30;99.90
12872;DHT22;6504;53.766;9.626;2024-02-14T03:07:37;5.20;99.90
12872;DHT22;6504;53.766;9.626;2024-02-14T03:10:06;5.30;99.90
12872;DHT22;6504;53.766;9.626;2024-02-14T03:12:36;5.30;99.90
12872;DHT22;6504;53.766;9.626;2024-02-14T03:15:06;5.30;99.90
12872;DHT22;6504;53.766;9.626;2024-02-14T03:17:37;5.30;99.90
12872;DHT22;6504;53.766;9.626;2024-02-14T03:20:06;5.30;99.90
12872;DHT22;6504;53.766;9.626;2024-02-14T03:22:44;5.30;99.90
12872;DHT22;6504;53.766;9.626;2024-02-14T03:25:13;5.30;99.90
12872;DHT22;6504;53.766;9.626;2024-02-14T03:27:44;5.30;99.90
12872;DHT22;6504;53.766;9.626;2024-02-14T03:30:14;5.30;99.90
12872;DHT22;6504;53.766;9.626;2024-02-14T03:32:43;5.30;99.90
12872;DHT22;6504;53.766;9.626;2024-02-14T03:35:11;5.30;99.90
12872;DHT22;6504;53.766;9.626;2024-02-14T03:37:40;5.30;99.90
12872;DHT22;6504;53.766;9.626;2024-02-14T03:40:10;5.30;99.90
12872;DHT22;6504;53.766;9.626;2024-02-14T03:42:38;5.30;99.90
12872;DHT22;6504;53.766;9.626;2024-02-14T03:45:09;5.30;99.90
12872;DHT22;6504;53.766;9.626;2024-02-14T03:47:37;5.30;99.90
12872;DHT22;6504;53.766;9.626;2024-02-14T03:50:07;5.30;99.90
12872;DHT22;6504;53.766;9.626;2024-02-14T03:52:36;5.30;99.90
12872;DHT22;6504;53.766;9.626;2024-02-14T03:55:05;5.30;99.90
12872;DHT22;6504;53.766;9.626;2024-02-14T03:57:33;5.30;99.90
12872;DHT22;6504;53.766;9.626;2024-02-14T04:00:08;5.30;99.90
12872;DHT22;6504;53.766;9.626;2024-02-14T04:02:38;5.30;99.90
12872;DHT22;6504;53.766;9.626;2024-02-14T04:05:07;5.30;99.90
12872;DHT22;6504;53.766;9.626;2024-02-14T04:07:36;5.30;99.90
12872;DHT22;6504;53.766;9.626;2024-02-14T04:10:06;5.30;99.90
12872;DHT22;6504;53.766;9.626;2024-02-14T04:12:34;5.30;99.90
12872;DHT22;6504;53.766;9.626;2024-02-14T04:15:02;5.40;99.90
12872;DHT22;6504;53.766;9.626;2024-02-14T04:17:32;5.30;99.90
12872;DHT22;6504;53.766;9.626;2024-02-14T04:20:00;5.40;99.90
12872;DHT22;6504;53.766;9.626;2024-02-14T04:22:29;5.30;99.90
12872;DHT22;6504;53.766;9.626;2024-02-14T04:24:58;5.40;99.90
12872;DHT22;6504;53.766;9.626;2024-02-14T04:27:27;5.40;99.90
12872;DHT22;6504;53.766;9.626;2024-02-14T04:29:55;5.30;99.90
12872;DHT22;6504;53.766;9.626;2024-02-14T04:32:25;5.30;99.90
12872;DHT22;6504;53.766;9.626;2024-02-14T04:34:54;5.40;99.90
12872;DHT22;6504;53.766;9.626;2024-02-14T04:37:23;5.30;99.90
12872;DHT22;6504;53.766;9.626;2024-02-14T04:39:51;5.40;99.90
12872;DHT22;6504;53.766;9.626;2024-02-14T04:42:19;5.40;99.90
12872;DHT22;6504;53.766;9.626;2024-02-14T04:44:48;5.40;99.90
12872;DHT22;6504;53.766;9.626;2024-02-14T04:47:16;5.40;99.90
12872;DHT22;6504;53.766;9.626;2024-02-14T04:49:44;5.40;99.90
12872;DHT22;6504;53.766;9.626;2024-02-14T04:52:13;5.40;99.90
12872;DHT22;6504;53.766;9.626;2024-02-14T04:54:43;5.40;99.90
12872;DHT22;6504;53.766;9.626;2024-02-14T04:57:11;5.40;99.90
12872;DHT22;6504;53.766;9.626;2024-02-14T04:59:39;5.40;99.90
12872;DHT22;6504;53.766;9.626;2024-02-14T05:02:07;5.40;99.90
12872;DHT22;6504;53.766;9.626;2024-02-14T05:04:35;5.40;99.90
12872;DHT22;6504;53.766;9.626;2024-02-14T05:07:05;5.40;99.90
12872;DHT22;6504;53.766;9.626;2024-02-14T05:09:35;5.40;99.90
12872;DHT22;6504;53.766;9.626;2024-02-14T05:12:03;5.40;99.90
12872;DHT22;6504;53.766;9.626;2024-02-14T05:14:31;5.40;99.90
12872;DHT22;6504;53.766;9.626;2024-02-14T05:16:59;5.40;99.90
12872;DHT22;6504;53.766;9.626;2024-02-14T05:19:28;5.40;99.90
12872;DHT22;6504;53.766;9.626;2024-02-14T05:21:57;5.40;99.90
12872;DHT22;6504;53.766;9.626;2024-02-14T05:24:25;5.40;99.90
12872;DHT22;6504;53.766;9.626;2024-02-14T05:26:57;5.40;99.90
12872;DHT22;6504;53.766;9.626;2024-02-14T05:29:25;5.40;99.90
12872;DHT22;6504;53.766;9.626;2024-02-14T05:31:54;5.50;99.90
12872;DHT22;6504;53.766;9.626;2024-02-14T05:34:23;5.50;99.90
12872;DHT22;6504;53.766;9.626;2024-02-14T05:36:51;5.40;99.90
12872;DHT22;6504;53.766;9.626;2024-02-14T05:39:19;5.40;99.90
12872;DHT22;6504;53.766;9.626;2024-02-14T05:41:47;5.50;99.90
12872;DHT22;6504;53.766;9.626;2024-02-14T05:44:18;5.50;99.90
12872;DHT22;6504;53.766;9.626;2024-02-14T05:46:46;5.50;99.90
12872;DHT22;6504;53.766;9.626;2024-02-14T05:49:14;5.50;99.90
12872;DHT22;6504;53.766;9.626;2024-02-14T05:51:43;5.50;99.90
12872;DHT22;6504;53.766;9.626;2024-02-14T05:54:11;5.50;99.90
12872;DHT22;6504;53.766;9.626;2024-02-14T05:56:39;5.50;99.90
12872;DHT22;6504;53.766;9.626;2024-02-14T05:59:07;5.50;99.90
12872;DHT22;6504;53.766;9.626;2024-02-14T06:01:38;5.50;99.90
12872;DHT22;6504;53.766;9.626;2024-02-14T06:04:06;5.50;99.90
12872;DHT22;6504;53.766;9.626;2024-02-14T06:06:34;5.50;99.90
12872;DHT22;6504;53.766;9.626;2024-02-14T06:09:02;5.50;99.90
12872;DHT22;6504;53.766;9.626;2024-02-14T06:11:37;5.50;99.90
12872;DHT22;6504;53.766;9.626;2024-02-14T06:14:06;5.50;99.90
12872;DHT22;6504;53.766;9.626;2024-02-14T06:16:35;5.50;99.90
12872;DHT22;6504;53.766;9.626;2024-02-14T06:19:04;5.50;99.90
12872;DHT22;6504;53.766;9.626;2024-02-14T06:21:33;5.50;99.90
12872;DHT22;6504;53.766;9.626;2024-02-14T06:24:01;5.50;99.90
12872;DHT22;6504;53.766;9.626;2024-02-14T06:26:31;5.50;99.90
12872;DHT22;6504;53.766;9.626;2024-02-14T06:29:00;5.50;99.90
12872;DHT22;6504;53.766;9.626;2024-02-14T06:31:32;5.50;99.90
12872;DHT22;6504;53.766;9.626;2024-02-14T06:34:00;5.60;99.90
12872;DHT22;6504;53.766;9.626;2024-02-14T06:36:30;5.60;99.90
12872;DHT22;6504;53.766;9.626;2024-02-14T06:38:58;5.50;99.90
12872;DHT22;6504;53.766;9.626;2024-02-14T06:41:26;5.60;99.90
12872;DHT22;6504;53.766;9.626;2024-02-14T06:43:54;5.60;99.90
12872;DHT22;6504;53.766;9.626;2024-02-14T06:46:22;5.60;99.90
12872;DHT22;6504;53.766;9.626;2024-02-14T06:48:50;5.60;99.90
12872;DHT22;6504;53.766;9.626;2024-02-14T06:51:18;5.60;99.90
12872;DHT22;6504;53.766;9.626;2024-02-14T06:53:49;5.60;99.90
12872;DHT22;6504;53.766;9.626;2024-02-14T06:56:17;5.60;99.90
12872;DHT22;6504;53.766;9.626;2024-02-14T06:58:45;5.60;99.90
12872;DHT22;6504;53.766;9.626;2024-02-14T07:01:13;5.60;99.90
12872;DHT22;6504;53.766;9.626;2024-02-14T07:03:45;5.70;99.90
12872;DHT22;6504;53.766;9.626;2024-02-14T07:06:13;5.70;99.90
12872;DHT22;6504;53.766;9.626;2024-02-14T07:08:41;5.70;99.90
12872;DHT22;6504;53.766;9.626;2024-02-14T07:11:11;5.70;99.90
12872;DHT22;6504;53.766;9.626;2024-02-14T07:13:39;5.70;99.90
12872;DHT22;6504;53.766;9.626;2024-02-14T07:16:07;5.70;99.90
12872;DHT22;6504;53.766;9.626;2024-02-14T07:18:37;5.70;99.90
12872;DHT22;6504;53.766;9.626;2024-02-14T07:21:06;5.70;99.90
12872;DHT22;6504;53.766;9.626;2024-02-14T07:23:34;5.70;99.90
12872;DHT22;6504;53.766;9.626;2024-02-14T07:26:03;5.80;99.90
12872;DHT22;6504;53.766;9.626;2024-02-14T07:28:33;5.80;99.90
12872;DHT22;6504;53.766;9.626;2024-02-14T07:31:01;5.80;99.90
12872;DHT22;6504;53.766;9.626;2024-02-14T07:33:29;5.80;99.90
12872;DHT22;6504;53.766;9.626;2024-02-14T07:35:57;5.80;99.90
12872;DHT22;6504;53.766;9.626;2024-02-14T07:38:25;5.80;99.90
12872;DHT22;6504;53.766;9.626;2024-02-14T07:40:54;5.80;99.90
12872;DHT22;6504;53.766;9.626;2024-02-14T07:43:22;5.90;99.90
12872;DHT22;6504;53.766;9.626;2024-02-14T07:45:51;5.90;99.90
12872;DHT22;6504;53.766;9.626;2024-02-14T07:48:19;5.90;99.90
12872;DHT22;6504;53.766;9.626;2024-02-14T07:50:49;5.90;99.90
12872;DHT22;6504;53.766;9.626;2024-02-14T07:53:17;5.90;99.90
12872;DHT22;6504;53.766;9.626;2024-02-14T07:55:45;5.90;99.90
12872;DHT22;6504;53.766;9.626;2024-02-14T07:58:14;5.90;99.90
12872;DHT22;6504;53.766;9.626;2024-02-14T08:00:42;6.00;99.90
12872;DHT22;6504;53.766;9.626;2024-02-14T08:03:12;6.00;99.90
12872;DHT22;6504;53.766;9.626;2024-02-14T08:05:40;6.00;99.90
12872;DHT22;6504;53.766;9.626;2024-02-14T08:08:09;6.00;99.90
12872;DHT22;6504;53.766;9.626;2024-02-14T08:10:37;6.00;99.90
12872;DHT22;6504;53.766;9.626;2024-02-14T08:13:05;6.00;99.90
12872;DHT22;6504;53.766;9.626;2024-02-14T08:15:33;6.10;99.90
12872;DHT22;6504;53.766;9.626;2024-02-14T08:18:04;6.10;99.90
12872;DHT22;6504;53.766;9.626;2024-02-14T08:20:37;6.10;99.90
12872;DHT22;6504;53.766;9.626;2024-02-14T08:23:05;6.10;99.90
12872;DHT22;6504;53.766;9.626;2024-02-14T08:25:34;6.10;99.90
12872;DHT22;6504;53.766;9.626;2024-02-14T08:28:02;6.20;99.90
12872;DHT22;6504;53.766;9.626;2024-02-14T08:30:30;6.20;99.90
12872;DHT22;6504;53.766;9.626;2024-02-14T08:32:58;6.20;99.90
12872;DHT22;6504;53.766;9.626;2024-02-14T08:35:27;6.30;99.90
12872;DHT22;6504;53.766;9.626;2024-02-14T08:37:57;6.30;99.90
12872;DHT22;6504;53.766;9.626;2024-02-14T08:40:25;6.30;99.90
12872;DHT22;6504;53.766;9.626;2024-02-14T08:42:53;6.30;99.90
12872;DHT22;6504;53.766;9.626;2024-02-14T08:45:21;6.30;99.90
12872;DHT22;6504;53.766;9.626;2024-02-14T08:47:50;6.30;99.90
12872;DHT22;6504;53.766;9.626;2024-02-14T08:50:18;6.30;99.90
12872;DHT22;6504;53.766;9.626;2024-02-14T08:52:46;6.40;99.90
12872;DHT22;6504;53.766;9.626;2024-02-14T08:55:15;6.40;99.90
12872;DHT22;6504;53.766;9.626;2024-02-14T08:57:46;6.40;99.90
12872;DHT22;6504;53.766;9.626;2024-02-14T09:00:15;6.40;99.90
12872;DHT22;6504;53.766;9.626;2024-02-14T09:02:47;6.40;99.90
12872;DHT22;6504;53.766;9.626;2024-02-14T09:05:15;6.40;99.90
12872;DHT22;6504;53.766;9.626;2024-02-14T09:07:46;6.50;99.90
12872;DHT22;6504;53.766;9.626;2024-02-14T09:10:15;6.50;99.90
12872;DHT22;6504;53.766;9.626;2024-02-14T09:12:43;6.50;99.90
12872;DHT22;6504;53.766;9.626;2024-02-14T09:15:11;6.50;99.90
12872;DHT22;6504;53.766;9.626;2024-02-14T09:17:40;6.50;99.90
12872;DHT22;6504;53.766;9.626;2024-02-14T09:20:10;6.60;99.90
12872;DHT22;6504;53.766;9.626;2024-02-14T09:22:41;6.60;99.90
12872;DHT22;6504;53.766;9.626;2024-02-14T09:25:09;6.60;99.90
12872;DHT22;6504;53.766;9.626;2024-02-14T09:27:39;6.60;99.90
12872;DHT22;6504;53.766;9.626;2024-02-14T09:30:08;6.60;99.90
12872;DHT22;6504;53.766;9.626;2024-02-14T09:32:53;6.70;99.90
12872;DHT22;6504;53.766;9.626;2024-02-14T09:35:22;6.70;99.90
12872;DHT22;6504;53.766;9.626;2024-02-14T09:37:50;6.70;99.90
12872;DHT22;6504;53.766;9.626;2024-02-14T09:40:18;6.80;99.90
12872;DHT22;6504;53.766;9.626;2024-02-14T09:42:53;6.80;99.90
12872;DHT22;6504;53.766;9.626;2024-02-14T09:45:24;6.80;99.90
12872;DHT22;6504;53.766;9.626;2024-02-14T09:47:53;6.90;99.90
12872;DHT22;6504;53.766;9.626;2024-02-14T09:50:23;6.90;99.90
12872;DHT22;6504;53.766;9.626;2024-02-14T09:52:54;6.90;99.90
12872;DHT22;6504;53.766;9.626;2024-02-14T09:55:23;7.00;99.90
12872;DHT22;6504;53.766;9.626;2024-02-14T09:57:54;7.00;99.90
12872;DHT22;6504;53.766;9.626;2024-02-14T10:00:23;7.10;99.90
12872;DHT22;6504;53.766;9.626;2024-02-14T10:02:51;7.10;99.90
12872;DHT22;6504;53.766;9.626;2024-02-14T10:05:20;7.10;99.90
12872;DHT22;6504;53.766;9.626;2024-02-14T10:07:48;7.20;99.90
12872;DHT22;6504;53.766;9.626;2024-02-14T10:10:16;7.20;99.90
12872;DHT22;6504;53.766;9.626;2024-02-14T10:12:44;7.30;99.90
12872;DHT22;6504;53.766;9.626;2024-02-14T10:15:14;7.30;99.90
12872;DHT22;6504;53.766;9.626;2024-02-14T10:17:43;7.30;99.90
12872;DHT22;6504;53.766;9.626;2024-02-14T10:20:16;7.40;99.90
12872;DHT22;6504;53.766;9.626;2024-02-14T10:22:45;7.40;99.90
12872;DHT22;6504;53.766;9.626;2024-02-14T10:25:13;7.40;99.90
12872;DHT22;6504;53.766;9.626;2024-02-14T10:27:41;7.50;99.90
12872;DHT22;6504;53.766;9.626;2024-02-14T10:30:10;7.50;99.90
12872;DHT22;6504;53.766;9.626;2024-02-14T10:32:40;7.50;99.90
12872;DHT22;6504;53.766;9.626;2024-02-14T10:35:14;7.60;99.90
12872;DHT22;6504;53.766;9.626;2024-02-14T10:37:43;7.60;99.90
12872;DHT22;6504;53.766;9.626;2024-02-14T10:40:12;7.70;99.90
12872;DHT22;6504;53.766;9.626;2024-02-14T10:42:40;7.80;99.90
12872;DHT22;6504;53.766;9.626;2024-02-14T10:45:08;7.90;99.90
12872;DHT22;6504;53.766;9.626;2024-02-14T10:47:42;7.90;99.90
12872;DHT22;6504;53.766;9.626;2024-02-14T10:50:13;8.00;99.90
12872;DHT22;6504;53.766;9.626;2024-02-14T10:52:42;8.10;99.90
12872;DHT22;6504;53.766;9.626;2024-02-14T10:55:11;8.10;99.90
12872;DHT22;6504;53.766;9.626;2024-02-14T10:57:39;8.20;99.90
12872;DHT22;6504;53.766;9.626;2024-02-14T11:00:09;8.30;99.90
12872;DHT22;6504;53.766;9.626;2024-02-14T11:02:42;8.30;99.90
12872;DHT22;6504;53.766;9.626;2024-02-14T11:05:12;8.30;99.90
12872;DHT22;6504;53.766;9.626;2024-02-14T11:07:44;8.30;99.90
12872;DHT22;6504;53.766;9.626;2024-02-14T11:10:14;8.30;99.90
12872;DHT22;6504;53.766;9.626;2024-02-14T11:12:43;8.40;99.90
12872;DHT22;6504;53.766;9.626;2024-02-14T11:15:16;8.40;99.90
12872;DHT22;6504;53.766;9.626;2024-02-14T11:17:47;8.40;99.90
12872;DHT22;6504;53.766;9.626;2024-02-14T11:20:17;8.40;99.90
12872;DHT22;6504;53.766;9.626;2024-02-14T11:22:54;8.50;99.90
12872;DHT22;6504;53.766;9.626;2024-02-14T11:25:28;8.50;99.90
12872;DHT22;6504;53.766;9.626;2024-02-14T11:27:57;8.50;99.90
12872;DHT22;6504;53.766;9.626;2024-02-14T11:30:34;8.60;99.90
12872;DHT22;6504;53.766;9.626;2024-02-14T11:33:25;8.60;99.90
12872;DHT22;6504;53.766;9.626;2024-02-14T11:35:54;8.60;99.90
12872;DHT22;6504;53.766;9.626;2024-02-14T11:38:24;8.60;99.90
12872;DHT22;6504;53.766;9.626;2024-02-14T11:40:54;8.70;99.90
12872;DHT22;6504;53.766;9.626;2024-02-14T11:43:23;8.70;99.90
12872;DHT22;6504;53.766;9.626;2024-02-14T11:45:51;8.70;99.90
12872;DHT22;6504;53.766;9.626;2024-02-14T11:48:20;8.80;99.90
12872;DHT22;6504;53.766;9.626;2024-02-14T11:50:53;8.80;99.90
12872;DHT22;6504;53.766;9.626;2024-02-14T11:53:22;8.80;99.90
12872;DHT22;6504;53.766;9.626;2024-02-14T11:55:50;8.80;99.90
12872;DHT22;6504;53.766;9.626;2024-02-14T11:58:18;8.80;99.90
12872;DHT22;6504;53.766;9.626;2024-02-14T12:00:47;8.90;99.90
12872;DHT22;6504;53.766;9.626;2024-02-14T12:03:17;8.90;99.90
12872;DHT22;6504;53.766;9.626;2024-02-14T12:05:47;8.90;99.90
12872;DHT22;6504;53.766;9.626;2024-02-14T12:08:17;8.90;99.90
12872;DHT22;6504;53.766;9.626;2024-02-14T12:10:46;9.00;99.90
12872;DHT22;6504;53.766;9.626;2024-02-14T12:13:19;9.00;99.90
12872;DHT22;6504;53.766;9.626;2024-02-14T12:15:50;9.10;99.90
12872;DHT22;6504;53.766;9.626;2024-02-14T12:18:20;9.10;99.90
12872;DHT22;6504;53.766;9.626;2024-02-14T12:20:49;9.10;99.90
12872;DHT22;6504;53.766;9.626;2024-02-14T12:23:23;9.20;99.90
12872;DHT22;6504;53.766;9.626;2024-02-14T12:25:54;9.20;99.90
12872;DHT22;6504;53.766;9.626;2024-02-14T12:28:23;9.30;99.90
12872;DHT22;6504;53.766;9.626;2024-02-14T12:30:51;9.30;99.90
12872;DHT22;6504;53.766;9.626;2024-02-14T12:33:24;9.30;99.90
12872;DHT22;6504;53.766;9.626;2024-02-14T12:35:54;9.40;99.90
12872;DHT22;6504;53.766;9.626;2024-02-14T12:38:25;9.40;99.90
12872;DHT22;6504;53.766;9.626;2024-02-14T12:40:53;9.50;99.90
12872;DHT22;6504;53.766;9.626;2024-02-14T12:43:22;9.50;99.90
12872;DHT22;6504;53.766;9.626;2024-02-14T12:45:50;9.50;99.90
12872;DHT22;6504;53.766;9.626;2024-02-14T12:48:22;9.50;99.90
12872;DHT22;6504;53.766;9.626;2024-02-14T12:50:54;9.60;99.90
12872;DHT22;6504;53.766;9.626;2024-02-14T12:53:25;9.60;99.90
12872;DHT22;6504;53.766;9.626;2024-02-14T12:55:53;9.60;99.90
12872;DHT22;6504;53.766;9.626;2024-02-14T12:58:22;9.60;99.90
12872;DHT22;6504;53.766;9.626;2024-02-14T13:00:50;9.70;99.90
12872;DHT22;6504;53.766;9.626;2024-02-14T13:03:18;9.70;99.90
12872;DHT22;6504;53.766;9.626;2024-02-14T13:05:46;9.70;99.90
12872;DHT22;6504;53.766;9.626;2024-02-14T13:08:15;9.80;99.90
12872;DHT22;6504;53.766;9.626;2024-02-14T13:10:45;9.80;99.90
12872;DHT22;6504;53.766;9.626;2024-02-14T13:13:13;9.80;99.90
12872;DHT22;6504;53.766;9.626;2024-02-14T13:15:42;9.80;99.90
12872;DHT22;6504;53.766;9.626;2024-02-14T13:18:11;9.90;99.90
12872;DHT22;6504;53.766;9.626;2024-02-14T13:20:40;9.90;99.90
12872;DHT22;6504;53.766;9.626;2024-02-14T13:23:09;9.90;99.90
12872;DHT22;6504;53.766;9.626;2024-02-14T13:25:37;10.00;99.90
12872;DHT22;6504;53.766;9.626;2024-02-14T13:28:07;9.90;99.90
12872;DHT22;6504;53.766;9.626;2024-02-14T13:30:35;9.90;99.90
12872;DHT22;6504;53.766;9.626;2024-02-14T13:33:05;9.90;99.90
12872;DHT22;6504;53.766;9.626;2024-02-14T13:35:33;10.00;99.90
12872;DHT22;6504;53.766;9.626;2024-02-14T13:38:05;9.90;99.90
12872;DHT22;6504;53.766;9.626;2024-02-14T13:40:33;9.90;99.90
12872;DHT22;6504;53.766;9.626;2024-02-14T13:43:01;9.90;99.90
12872;DHT22;6504;53.766;9.626;2024-02-14T13:45:42;10.00;99.90
12872;DHT22;6504;53.766;9.626;2024-02-14T13:48:11;10.00;99.90
12872;DHT22;6504;53.766;9.626;2024-02-14T13:50:40;10.00;99.90
12872;DHT22;6504;53.766;9.626;2024-02-14T13:53:08;10.00;99.90
12872;DHT22;6504;53.766;9.626;2024-02-14T13:55:37;10.00;99.90
12872;DHT22;6504;53.766;9.626;2024-02-14T13:58:06;10.00;99.90
12872;DHT22;6504;53.766;9.626;2024-02-14T14:00:42;10.00;99.90
12872;DHT22;6504;53.766;9.626;2024-02-14T14:03:10;10.00;99.90
12872;DHT22;6504;53.766;9.626;2024-02-14T14:05:39;10.00;99.90
12872;DHT22;6504;53.766;9.626;2024-02-14T14:08:06;10.00;99.90
12872;DHT22;6504;53.766;9.626;2024-02-14T14:10:34;10.00;99.90
12872;DHT22;6504;53.766;9.626;2024-02-14T14:13:03;10.00;99.90
12872;DHT22;6504;53.766;9.626;2024-02-14T14:15:31;10.00;99.90
12872;DHT22;6504;53.766;9.626;2024-02-14T14:18:01;10.00;99.90
12872;DHT22;6504;53.766;9.626;2024-02-14T14:20:29;10.00;99.90
12872;DHT22;6504;53.766;9.626;2024-02-14T14:22:58;10.10;99.90
12872;DHT22;6504;53.766;9.626;2024-02-14T14:25:26;10.00;99.90
12872;DHT22;6504;53.766;9.626;2024-02-14T14:27:57;10.10;99.90
12872;DHT22;6504;53.766;9.626;2024-02-14T14:30:25;10.10;99.90
12872;DHT22;6504;53.766;9.626;2024-02-14T14:32:54;10.10;99.90
12872;DHT22;6504;53.766;9.626;2024-02-14T14:35:24;10.10;99.90
12872;DHT22;6504;53.766;9.626;2024-02-14T14:37:52;10.10;99.90
12872;DHT22;6504;53.766;9.626;2024-02-14T14:40:21;10.10;99.90
12872;DHT22;6504;53.766;9.626;2024-02-14T14:42:49;10.10;99.90
12872;DHT22;6504;53.766;9.626;2024-02-14T14:45:17;10.10;99.90
12872;DHT22;6504;53.766;9.626;2024-02-14T14:47:46;10.10;99.90
12872;DHT22;6504;53.766;9.626;2024-02-14T14:50:15;10.10;99.90
12872;DHT22;6504;53.766;9.626;2024-02-14T14:52:46;10.10;99.90
12872;DHT22;6504;53.766;9.626;2024-02-14T14:55:14;10.10;99.90
12872;DHT22;6504;53.766;9.626;2024-02-14T14:57:42;10.10;99.90
12872;DHT22;6504;53.766;9.626;2024-02-14T15:00:11;10.10;99.90
12872;DHT22;6504;53.766;9.626;2024-02-14T15:02:40;10.10;99.90
12872;DHT22;6504;53.766;9.626;2024-02-14T15:05:09;10.10;99.90
12872;DHT22;6504;53.766;9.626;2024-02-14T15:07:38;10.10;99.90
12872;DHT22;6504;53.766;9.626;2024-02-14T15:10:08;10.10;99.90
12872;DHT22;6504;53.766;9.626;2024-02-14T15:12:37;10.10;99.90
12872;DHT22;6504;53.766;9.626;2024-02-14T15:15:06;10.10;99.90
12872;DHT22;6504;53.766;9.626;2024-02-14T15:17:35;10.10;99.90
12872;DHT22;6504;53.766;9.626;2024-02-14T15:20:05;10.10;99.90
12872;DHT22;6504;53.766;9.626;2024-02-14T15:22:33;10.20;99.90
12872;DHT22;6504;53.766;9.626;2024-02-14T15:25:01;10.20;99.90
12872;DHT22;6504;53.766;9.626;2024-02-14T15:27:31;10.10;99.90
12872;DHT22;6504;53.766;9.626;2024-02-14T15:29:59;10.10;99.90
12872;DHT22;6504;53.766;9.626;2024-02-14T15:32:45;10.10;99.90
12872;DHT22;6504;53.766;9.626;2024-02-14T15:35:31;10.10;99.90
12872;DHT22;6504;53.766;9.626;2024-02-14T15:37:59;10.10;99.90
12872;DHT22;6504;53.766;9.626;2024-02-14T15:40:28;10.10;99.90
12872;DHT22;6504;53.766;9.626;2024-02-14T15:42:57;10.10;99.90
12872;DHT22;6504;53.766;9.626;2024-02-14T15:45:27;10.10;99.90
12872;DHT22;6504;53.766;9.626;2024-02-14T15:47:56;10.10;99.90
12872;DHT22;6504;53.766;9.626;2024-02-14T15:50:24;10.10;99.90
12872;DHT22;6504;53.766;9.626;2024-02-14T15:52:52;10.10;99.90
12872;DHT22;6504;53.766;9.626;2024-02-14T15:55:21;10.10;99.90
12872;DHT22;6504;53.766;9.626;2024-02-14T15:57:50;10.10;99.90
12872;DHT22;6504;53.766;9.626;2024-02-14T16:00:20;10.10;99.90
12872;DHT22;6504;53.766;9.626;2024-02-14T16:02:48;10.10;99.90
12872;DHT22;6504;53.766;9.626;2024-02-14T16:05:16;10.10;99.90
12872;DHT22;6504;53.766;9.626;2024-02-14T16:07:45;10.10;99.90
12872;DHT22;6504;53.766;9.626;2024-02-14T16:10:13;10.10;99.90
12872;DHT22;6504;53.766;9.626;2024-02-14T16:12:43;10.10;99.90